createdAt,value
2017-08-27T00:00:51.659Z,49.00
2017-08-27T00:03:19.219Z,48.80
2017-08-27T00:05:46.728Z,48.80
2017-08-27T00:08:14.218Z,48.70
2017-08-27T00:10:41.751Z,48.80
2017-08-27T00:13:09.263Z,48.70
2017-08-27T00:15:36.796Z,48.70
2017-08-27T00:18:04.319Z,48.60
2017-08-27T00:20:31.871Z,48.60
2017-08-27T00:22:59.404Z,48.70
2017-08-27T00:25:26.948Z,48.80
2017-08-27T00:27:54.469Z,48.90
2017-08-27T00:30:21.974Z,49.10
2017-08-27T00:32:49.510Z,49.20
2017-08-27T00:35:17.162Z,49.20
2017-08-27T00:37:44.663Z,49.30
2017-08-27T00:40:12.154Z,49.10
2017-08-27T00:42:39.713Z,49.00
2017-08-27T00:45:07.579Z,48.90
2017-08-27T00:47:35.261Z,48.70
2017-08-27T00:50:03.047Z,48.70
2017-08-27T00:52:30.543Z,48.60
2017-08-27T00:54:58.037Z,48.70
2017-08-27T00:57:25.588Z,48.70
2017-08-27T00:59:53.095Z,48.70
2017-08-27T01:02:20.648Z,49.00
2017-08-27T01:04:48.169Z,49.10
2017-08-27T01:07:15.651Z,49.40
2017-08-27T01:09:43.204Z,49.70
2017-08-27T01:12:10.696Z,49.90
2017-08-27T01:14:38.208Z,50.00
2017-08-27T01:17:05.747Z,50.30
2017-08-27T01:19:33.271Z,50.50
2017-08-27T01:22:00.879Z,50.50
2017-08-27T01:24:28.389Z,51.20
2017-08-27T01:26:55.898Z,50.70
2017-08-27T01:29:23.457Z,50.70
2017-08-27T01:31:50.951Z,51.00
2017-08-27T01:34:18.452Z,51.30
2017-08-27T01:36:46.001Z,51.30
2017-08-27T01:39:13.506Z,51.40
2017-08-27T01:41:41.034Z,51.40
2017-08-27T01:44:08.560Z,51.30
2017-08-27T01:46:36.136Z,51.40
2017-08-27T01:49:03.673Z,51.30
2017-08-27T01:51:31.171Z,51.30
2017-08-27T01:53:58.844Z,51.30
2017-08-27T01:56:26.357Z,51.10
2017-08-27T01:58:53.918Z,51.10
2017-08-27T02:01:21.462Z,51.10
2017-08-27T02:03:48.973Z,51.20
2017-08-27T02:06:16.538Z,51.20
2017-08-27T02:08:44.841Z,51.00
2017-08-27T02:11:12.381Z,50.90
2017-08-27T02:13:39.944Z,50.90
2017-08-27T02:16:07.446Z,50.50
2017-08-27T02:18:34.950Z,49.90
2017-08-27T02:21:02.514Z,49.80
2017-08-27T02:23:30.062Z,49.80
2017-08-27T02:25:57.641Z,50.20
2017-08-27T02:28:25.177Z,49.50
2017-08-27T02:30:53.469Z,49.20
2017-08-27T02:33:21.020Z,49.20
2017-08-27T02:35:48.528Z,49.40
2017-08-27T02:38:16.094Z,49.60
2017-08-27T02:40:43.605Z,49.60
2017-08-27T02:43:11.129Z,49.70
2017-08-27T02:45:38.662Z,50.10
2017-08-27T02:48:06.170Z,50.30
2017-08-27T02:50:33.844Z,50.70
2017-08-27T02:53:01.330Z,51.00
2017-08-27T02:55:28.831Z,51.40
2017-08-27T02:57:56.358Z,52.40
2017-08-27T03:00:23.907Z,51.90
2017-08-27T03:02:51.423Z,52.40
2017-08-27T03:05:18.992Z,52.40
2017-08-27T03:07:46.551Z,52.40
2017-08-27T03:10:14.080Z,52.20
2017-08-27T03:12:41.598Z,51.90
2017-08-27T03:15:10.096Z,52.00
2017-08-27T03:17:37.595Z,52.00
2017-08-27T03:20:05.515Z,51.80
2017-08-27T03:22:33.058Z,51.80
2017-08-27T03:25:00.559Z,51.50
2017-08-27T03:27:28.083Z,51.40
2017-08-27T03:29:56.264Z,51.30
2017-08-27T03:32:23.823Z,51.20
2017-08-27T03:34:51.362Z,51.10
2017-08-27T03:37:18.895Z,50.70
2017-08-27T03:39:46.418Z,50.20
2017-08-27T03:42:13.963Z,50.00
2017-08-27T03:44:41.454Z,49.80
2017-08-27T03:47:09.016Z,49.50
2017-08-27T03:49:36.645Z,49.40
2017-08-27T03:52:04.212Z,49.30
2017-08-27T03:54:31.727Z,49.10
2017-08-27T03:56:59.269Z,48.90
2017-08-27T03:59:26.831Z,48.60
2017-08-27T04:01:54.429Z,48.70
2017-08-27T04:04:21.990Z,48.80
2017-08-27T04:06:49.544Z,48.90
2017-08-27T04:09:17.104Z,48.90
2017-08-27T04:11:44.656Z,49.10
2017-08-27T04:14:12.175Z,49.00
2017-08-27T04:16:39.729Z,48.90
2017-08-27T04:19:07.252Z,49.00
2017-08-27T04:21:34.756Z,49.00
2017-08-27T04:24:02.356Z,49.00
2017-08-27T04:26:29.851Z,48.90
2017-08-27T04:28:57.399Z,48.80
2017-08-27T04:31:24.988Z,48.80
2017-08-27T04:33:52.479Z,48.70
2017-08-27T04:36:20.024Z,48.60
2017-08-27T04:38:47.609Z,48.60
2017-08-27T04:41:15.168Z,49.20
2017-08-27T04:43:42.783Z,48.30
2017-08-27T04:46:10.290Z,48.30
2017-08-27T04:48:37.854Z,48.30
2017-08-27T04:51:05.373Z,48.30
2017-08-27T04:53:32.932Z,48.10
2017-08-27T04:56:00.488Z,48.10
2017-08-27T04:58:28.035Z,48.20
2017-08-27T05:00:55.585Z,48.10
2017-08-27T05:03:23.154Z,48.20
2017-08-27T05:05:50.647Z,48.10
2017-08-27T05:08:18.177Z,48.10
2017-08-27T05:10:45.745Z,48.10
2017-08-27T05:13:13.343Z,47.90
2017-08-27T05:15:41.089Z,48.10
2017-08-27T05:18:09.259Z,48.20
2017-08-27T05:20:36.790Z,48.00
2017-08-27T05:23:04.366Z,47.80
2017-08-27T05:25:31.977Z,47.80
2017-08-27T05:27:59.475Z,47.70
2017-08-27T05:30:26.982Z,47.50
2017-08-27T05:32:54.511Z,47.10
2017-08-27T05:35:22.071Z,47.10
2017-08-27T05:37:49.576Z,47.00
2017-08-27T05:40:17.201Z,47.00
2017-08-27T05:42:44.680Z,47.10
2017-08-27T05:45:12.180Z,47.20
2017-08-27T05:47:39.715Z,47.20
2017-08-27T05:50:07.249Z,47.10
2017-08-27T05:52:34.907Z,46.80
2017-08-27T05:55:02.541Z,46.80
2017-08-27T05:57:30.055Z,46.40
2017-08-27T05:59:57.564Z,46.20
2017-08-27T06:02:25.087Z,46.30
2017-08-27T06:04:52.668Z,46.30
2017-08-27T06:07:20.212Z,46.20
2017-08-27T06:09:47.748Z,46.20
2017-08-27T06:12:15.328Z,46.10
2017-08-27T06:14:43.694Z,45.80
2017-08-27T06:17:11.200Z,45.80
2017-08-27T06:19:38.715Z,45.80
2017-08-27T06:22:06.291Z,45.60
2017-08-27T06:24:33.838Z,45.50
2017-08-27T06:27:01.365Z,45.40
2017-08-27T06:29:29.677Z,45.60
2017-08-27T06:31:57.230Z,45.60
2017-08-27T06:34:24.789Z,45.70
2017-08-27T06:36:52.329Z,45.80
2017-08-27T06:39:19.879Z,45.80
2017-08-27T06:41:47.380Z,45.80
2017-08-27T06:44:14.902Z,45.80
2017-08-27T06:46:42.436Z,45.70
2017-08-27T06:49:10.716Z,45.60
2017-08-27T06:51:38.223Z,45.60
2017-08-27T06:54:06.136Z,45.40
2017-08-27T06:56:33.647Z,45.30
2017-08-27T06:59:01.151Z,45.20
2017-08-27T07:01:28.699Z,45.30
2017-08-27T07:03:56.204Z,45.20
2017-08-27T07:06:23.697Z,45.20
2017-08-27T07:08:51.268Z,44.90
2017-08-27T07:11:18.773Z,44.70
2017-08-27T07:13:46.294Z,44.40
2017-08-27T07:16:13.863Z,44.30
2017-08-27T07:18:41.361Z,44.20
2017-08-27T07:21:08.915Z,43.70
2017-08-27T07:23:36.465Z,44.20
2017-08-27T07:26:04.030Z,43.50
2017-08-27T07:28:32.303Z,43.10
2017-08-27T07:30:59.799Z,43.10
2017-08-27T07:33:28.122Z,43.30
2017-08-27T07:35:55.651Z,43.10
2017-08-27T07:38:23.196Z,43.00
2017-08-27T07:40:50.701Z,42.60
2017-08-27T07:43:18.195Z,42.20
2017-08-27T07:45:45.756Z,42.20
2017-08-27T07:48:13.283Z,42.30
2017-08-27T07:50:41.545Z,42.00
2017-08-27T07:53:09.132Z,42.00
2017-08-27T07:55:36.636Z,42.00
2017-08-27T07:58:04.143Z,42.00
2017-08-27T08:00:31.738Z,42.10
2017-08-27T08:02:59.310Z,42.10
2017-08-27T08:05:26.821Z,41.70
2017-08-27T08:07:54.369Z,41.60
2017-08-27T08:10:22.465Z,41.80
2017-08-27T08:12:49.989Z,41.70
2017-08-27T08:15:17.504Z,41.30
2017-08-27T08:17:45.067Z,41.80
2017-08-27T08:20:12.581Z,41.70
2017-08-27T08:22:40.079Z,41.60
2017-08-27T08:25:07.629Z,42.10
2017-08-27T08:27:35.151Z,41.90
2017-08-27T08:30:02.722Z,41.90
2017-08-27T08:32:30.368Z,42.00
2017-08-27T08:34:57.894Z,42.20
2017-08-27T08:37:26.070Z,42.30
2017-08-27T08:39:53.599Z,42.40
2017-08-27T08:42:21.121Z,42.40
2017-08-27T08:44:48.702Z,42.40
2017-08-27T08:47:16.250Z,42.60
2017-08-27T08:49:43.833Z,42.60
2017-08-27T08:52:11.415Z,42.70
2017-08-27T08:54:38.932Z,42.80
2017-08-27T08:57:06.560Z,42.70
2017-08-27T08:59:34.076Z,42.90
2017-08-27T09:02:01.601Z,43.10
2017-08-27T09:04:29.424Z,42.90
2017-08-27T09:06:56.933Z,43.00
2017-08-27T09:09:24.435Z,42.90
2017-08-27T09:11:52.028Z,42.90
2017-08-27T09:14:19.564Z,43.10
2017-08-27T09:16:47.122Z,43.10
2017-08-27T09:19:14.705Z,43.20
2017-08-27T09:21:42.232Z,43.20
2017-08-27T09:24:09.830Z,43.30
2017-08-27T09:26:37.338Z,43.40
2017-08-27T09:29:04.862Z,43.20
2017-08-27T09:31:33.394Z,43.10
2017-08-27T09:34:00.903Z,43.10
2017-08-27T09:36:28.427Z,42.60
2017-08-27T09:38:56.028Z,42.40
2017-08-27T09:41:23.580Z,42.60
2017-08-27T09:43:51.188Z,42.50
2017-08-27T09:46:18.684Z,42.50
2017-08-27T09:48:46.253Z,42.50
2017-08-27T09:51:13.762Z,42.50
2017-08-27T09:53:41.295Z,42.40
2017-08-27T09:56:08.792Z,42.50
2017-08-27T09:58:36.320Z,42.50
2017-08-27T10:01:05.524Z,42.20
2017-08-27T10:03:36.358Z,42.10
2017-08-27T10:06:03.934Z,42.10
2017-08-27T10:08:31.455Z,42.00
2017-08-27T10:10:58.954Z,42.00
2017-08-27T10:13:26.514Z,41.90
2017-08-27T10:15:54.030Z,41.90
2017-08-27T10:18:22.308Z,41.80
2017-08-27T10:20:49.834Z,41.90
2017-08-27T10:23:18.377Z,41.80
2017-08-27T10:25:45.968Z,41.90
2017-08-27T10:28:13.463Z,41.90
2017-08-27T10:30:41.019Z,41.50
2017-08-27T10:33:08.515Z,41.20
2017-08-27T10:35:36.107Z,40.70
2017-08-27T10:38:03.770Z,41.00
2017-08-27T10:40:32.148Z,41.30
2017-08-27T10:42:59.703Z,41.10
2017-08-27T10:45:27.230Z,41.20
2017-08-27T10:47:55.738Z,41.10
2017-08-27T10:50:23.283Z,40.40
2017-08-27T10:52:50.769Z,40.20
2017-08-27T10:55:18.268Z,40.00
2017-08-27T10:57:45.796Z,39.70
2017-08-27T11:00:13.324Z,39.60
2017-08-27T11:02:40.820Z,39.70
2017-08-27T11:05:08.496Z,39.20
2017-08-27T11:07:36.034Z,38.80
2017-08-27T11:10:04.110Z,39.00
2017-08-27T11:12:31.694Z,39.20
2017-08-27T11:14:59.211Z,39.30
2017-08-27T11:17:26.742Z,39.10
2017-08-27T11:19:54.263Z,38.80
2017-08-27T11:22:21.803Z,38.70
2017-08-27T11:24:49.347Z,38.10
2017-08-27T11:27:20.672Z,38.10
2017-08-27T11:29:48.207Z,37.90
2017-08-27T11:32:15.714Z,37.40
2017-08-27T11:34:43.223Z,37.50
2017-08-27T11:37:10.757Z,37.30
2017-08-27T11:39:38.270Z,37.30
2017-08-27T11:42:05.874Z,37.30
2017-08-27T11:44:33.389Z,37.40
2017-08-27T11:47:00.889Z,37.50
2017-08-27T11:49:29.405Z,37.40
2017-08-27T11:51:57.703Z,37.20
2017-08-27T11:54:25.240Z,37.10
2017-08-27T11:56:53.257Z,37.00
2017-08-27T11:59:20.826Z,37.70
2017-08-27T12:01:48.345Z,36.80
2017-08-27T12:04:15.867Z,36.80
2017-08-27T12:06:43.456Z,36.80
2017-08-27T12:09:10.967Z,37.00
2017-08-27T12:11:38.511Z,37.00
2017-08-27T12:14:06.057Z,36.80
2017-08-27T12:16:33.581Z,36.50
2017-08-27T12:19:01.103Z,36.40
2017-08-27T12:21:28.647Z,36.70
2017-08-27T12:23:56.201Z,36.30
2017-08-27T12:26:23.744Z,36.60
2017-08-27T12:28:51.408Z,36.60
2017-08-27T12:31:18.953Z,36.70
2017-08-27T12:33:46.499Z,36.70
2017-08-27T12:36:14.846Z,36.10
2017-08-27T12:38:42.398Z,36.10
2017-08-27T12:41:09.935Z,36.20
2017-08-27T12:43:37.492Z,36.30
2017-08-27T12:46:04.980Z,36.00
2017-08-27T12:48:33.067Z,36.40
2017-08-27T12:51:04.510Z,36.30
2017-08-27T12:53:32.054Z,36.40
2017-08-27T12:55:59.557Z,36.10
2017-08-27T12:58:27.086Z,36.30
2017-08-27T13:00:54.601Z,36.00
2017-08-27T13:03:22.110Z,35.40
2017-08-27T13:05:49.628Z,34.60
2017-08-27T13:08:17.142Z,35.00
2017-08-27T13:10:44.699Z,35.30
2017-08-27T13:13:12.222Z,35.30
2017-08-27T13:15:39.769Z,35.30
2017-08-27T13:18:07.311Z,35.30
2017-08-27T13:20:34.853Z,34.70
2017-08-27T13:23:02.497Z,33.00
2017-08-27T13:25:30.018Z,32.70
2017-08-27T13:27:57.525Z,32.90
2017-08-27T13:30:25.917Z,32.30
2017-08-27T13:32:53.425Z,32.50
2017-08-27T13:35:21.502Z,32.50
2017-08-27T13:37:49.011Z,32.30
2017-08-27T13:40:16.507Z,31.80
2017-08-27T13:42:44.235Z,31.70
2017-08-27T13:45:11.747Z,31.80
2017-08-27T13:47:39.251Z,32.00
2017-08-27T13:50:07.575Z,31.90
2017-08-27T13:52:36.085Z,31.80
2017-08-27T13:55:03.992Z,31.60
2017-08-27T13:57:31.562Z,31.60
2017-08-27T13:59:59.067Z,31.60
2017-08-27T14:02:26.633Z,31.70
2017-08-27T14:04:54.198Z,31.80
2017-08-27T14:07:21.749Z,32.00
2017-08-27T14:09:49.255Z,32.00
2017-08-27T14:12:16.822Z,32.20
2017-08-27T14:14:44.413Z,32.00
2017-08-27T14:17:11.965Z,32.10
2017-08-27T14:19:39.496Z,32.20
2017-08-27T14:22:07.109Z,32.20
2017-08-27T14:24:34.657Z,32.10
2017-08-27T14:27:02.182Z,32.00
2017-08-27T14:29:29.756Z,32.20
2017-08-27T14:31:57.267Z,32.40
2017-08-27T14:34:24.790Z,32.70
2017-08-27T14:36:52.351Z,32.80
2017-08-27T14:39:19.856Z,33.00
2017-08-27T14:41:47.388Z,33.80
2017-08-27T14:44:14.965Z,33.60
2017-08-27T14:46:42.457Z,33.70
2017-08-27T14:49:10.029Z,34.00
2017-08-27T14:51:37.553Z,34.20
2017-08-27T14:54:05.083Z,34.50
2017-08-27T14:56:32.615Z,34.60
2017-08-27T14:59:00.211Z,34.90
2017-08-27T15:01:27.773Z,34.80
2017-08-27T15:03:55.292Z,35.20
2017-08-27T15:06:22.915Z,35.30
2017-08-27T15:08:50.452Z,35.50
2017-08-27T15:11:18.000Z,35.50
2017-08-27T15:13:45.557Z,35.70
2017-08-27T15:16:13.954Z,35.60
2017-08-27T15:18:41.533Z,35.60
2017-08-27T15:21:09.024Z,35.60
2017-08-27T15:23:36.549Z,38.20
2017-08-27T15:26:04.164Z,38.60
2017-08-27T15:28:31.723Z,39.70
2017-08-27T15:30:59.222Z,40.60
2017-08-27T15:33:26.759Z,41.30
2017-08-27T15:35:54.338Z,42.00
2017-08-27T15:38:22.460Z,42.50
2017-08-27T15:40:49.968Z,43.40
2017-08-27T15:43:17.514Z,44.00
2017-08-27T15:45:45.122Z,44.30
2017-08-27T15:48:12.679Z,44.60
2017-08-27T15:50:40.180Z,44.40
2017-08-27T15:53:07.732Z,44.70
2017-08-27T15:55:35.237Z,45.10
2017-08-27T15:58:02.797Z,45.40
2017-08-27T16:00:30.476Z,45.70
2017-08-27T16:02:58.025Z,45.60
2017-08-27T16:05:25.574Z,45.30
2017-08-27T16:07:53.181Z,44.70
2017-08-27T16:10:20.690Z,44.50
2017-08-27T16:12:48.285Z,44.30
2017-08-27T16:15:15.829Z,44.60
2017-08-27T16:17:43.432Z,44.50
2017-08-27T16:20:10.999Z,45.00
2017-08-27T16:22:38.582Z,45.60
2017-08-27T16:25:06.781Z,46.40
2017-08-27T16:27:34.374Z,46.60
2017-08-27T16:30:02.248Z,46.80
2017-08-27T16:32:29.779Z,46.90
2017-08-27T16:34:57.342Z,46.90
2017-08-27T16:37:24.854Z,46.80
2017-08-27T16:39:53.267Z,46.80
2017-08-27T16:42:20.819Z,46.80
2017-08-27T16:44:48.353Z,47.10
2017-08-27T16:47:27.742Z,47.00
2017-08-27T16:49:55.293Z,47.00
2017-08-27T16:52:22.901Z,46.80
2017-08-27T16:54:50.418Z,47.20
2017-08-27T16:57:17.925Z,47.40
2017-08-27T16:59:45.552Z,47.60
2017-08-27T17:02:13.063Z,47.70
2017-08-27T17:04:40.600Z,48.40
2017-08-27T17:07:08.230Z,47.90
2017-08-27T17:09:35.783Z,48.00
2017-08-27T17:12:03.313Z,47.90
2017-08-27T17:14:30.942Z,47.90
2017-08-27T17:16:58.475Z,48.70
2017-08-27T17:19:26.023Z,48.10
2017-08-27T17:21:53.592Z,48.30
2017-08-27T17:24:21.192Z,48.40
2017-08-27T17:26:48.723Z,48.50
2017-08-27T17:29:16.386Z,48.50
2017-08-27T17:31:43.994Z,48.60
2017-08-27T17:34:11.527Z,48.60
2017-08-27T17:36:39.103Z,48.60
2017-08-27T17:39:06.686Z,48.50
2017-08-27T17:41:35.147Z,48.30
2017-08-27T17:44:02.781Z,48.30
2017-08-27T17:46:30.433Z,48.30
2017-08-27T17:48:58.070Z,48.20
2017-08-27T17:51:25.687Z,48.10
2017-08-27T17:53:53.350Z,47.80
2017-08-27T17:56:21.043Z,46.80
2017-08-27T17:58:48.578Z,46.70
2017-08-27T18:01:16.267Z,46.70
2017-08-27T18:03:44.471Z,46.90
2017-08-27T18:06:12.033Z,46.90
2017-08-27T18:08:39.649Z,47.10
2017-08-27T18:11:07.325Z,47.30
2017-08-27T18:13:34.925Z,47.30
2017-08-27T18:16:02.613Z,47.60
2017-08-27T18:18:31.078Z,47.80
2017-08-27T18:20:58.770Z,47.90
2017-08-27T18:23:26.307Z,48.10
2017-08-27T18:25:53.967Z,48.30
2017-08-27T18:28:21.598Z,48.30
2017-08-27T18:30:49.209Z,48.30
2017-08-27T18:33:16.788Z,47.60
2017-08-27T18:35:44.340Z,47.40
2017-08-27T18:38:12.712Z,47.80
2017-08-27T18:40:41.031Z,48.60
2017-08-27T18:43:08.624Z,48.60
2017-08-27T18:45:36.274Z,49.00
2017-08-27T18:48:03.850Z,49.20
2017-08-27T18:50:31.400Z,49.60
2017-08-27T18:52:59.041Z,50.10
2017-08-27T18:55:26.584Z,50.30
2017-08-27T18:57:54.103Z,50.30
2017-08-27T19:00:21.867Z,50.40
2017-08-27T19:02:54.952Z,50.50
2017-08-27T19:05:22.833Z,50.40
2017-08-27T19:07:50.367Z,50.30
2017-08-27T19:10:17.959Z,50.10
2017-08-27T19:12:45.558Z,50.10
2017-08-27T19:15:13.113Z,50.10
2017-08-27T19:17:40.707Z,50.00
2017-08-27T19:20:08.291Z,49.80
2017-08-27T19:22:35.893Z,49.80
2017-08-27T19:25:04.301Z,49.50
2017-08-27T19:27:31.858Z,49.60
2017-08-27T19:29:59.426Z,50.00
2017-08-27T19:32:26.973Z,49.60
2017-08-27T19:34:54.522Z,49.60
2017-08-27T19:37:22.129Z,49.30
2017-08-27T19:39:49.643Z,48.80
2017-08-27T19:42:17.208Z,49.10
2017-08-27T19:44:44.746Z,49.50
2017-08-27T19:47:12.286Z,49.70
2017-08-27T19:49:39.821Z,49.90
2017-08-27T19:52:07.463Z,50.10
2017-08-27T19:54:34.973Z,50.80
2017-08-27T19:57:02.517Z,50.40
2017-08-27T19:59:30.078Z,50.40
2017-08-27T20:01:57.672Z,50.70
2017-08-27T20:04:25.235Z,51.00
2017-08-27T20:06:52.772Z,51.20
2017-08-27T20:09:20.260Z,51.50
2017-08-27T20:11:47.850Z,51.60
2017-08-27T20:14:15.382Z,51.60
2017-08-27T20:16:42.909Z,51.60
2017-08-27T20:19:10.478Z,51.50
2017-08-27T20:21:37.974Z,51.80
2017-08-27T20:24:05.517Z,51.70
2017-08-27T20:26:33.050Z,51.30
2017-08-27T20:29:00.543Z,51.30
2017-08-27T20:31:28.081Z,51.10
2017-08-27T20:33:55.629Z,50.90
2017-08-27T20:36:23.128Z,50.90
2017-08-27T20:38:50.673Z,51.00
2017-08-27T20:41:18.251Z,51.10
2017-08-27T20:43:45.758Z,51.00
2017-08-27T20:46:13.347Z,51.10
2017-08-27T20:48:41.891Z,51.30
2017-08-27T20:51:10.970Z,51.30
2017-08-27T20:53:38.893Z,51.20
2017-08-27T20:56:06.458Z,51.00
2017-08-27T20:58:34.016Z,50.90
2017-08-27T21:01:01.585Z,50.90
2017-08-27T21:03:29.091Z,50.90
2017-08-27T21:05:56.655Z,50.80
2017-08-27T21:08:24.184Z,50.90
2017-08-27T21:10:51.747Z,51.20
2017-08-27T21:13:19.371Z,51.40
2017-08-27T21:15:46.880Z,51.70
2017-08-27T21:18:14.413Z,52.00
2017-08-27T21:20:41.966Z,52.10
2017-08-27T21:23:09.459Z,52.10
2017-08-27T21:25:36.983Z,52.40
2017-08-27T21:28:04.573Z,52.40
2017-08-27T21:30:32.165Z,52.80
2017-08-27T21:32:59.672Z,52.90
2017-08-27T21:35:27.209Z,52.80
2017-08-27T21:37:54.759Z,52.80
2017-08-27T21:40:22.313Z,52.80
2017-08-27T21:42:49.877Z,52.70
2017-08-27T21:45:17.370Z,52.60
2017-08-27T21:47:44.930Z,52.70
2017-08-27T21:50:12.417Z,52.60
2017-08-27T21:52:39.929Z,52.60
2017-08-27T21:55:07.478Z,52.60
2017-08-27T21:57:34.979Z,52.60
2017-08-27T22:00:02.499Z,52.90
2017-08-27T22:02:30.039Z,52.60
2017-08-27T22:04:57.549Z,52.70
2017-08-27T22:07:25.105Z,52.90
2017-08-27T22:09:52.680Z,52.90
2017-08-27T22:12:20.198Z,53.00
2017-08-27T22:14:47.746Z,53.00
2017-08-27T22:17:15.245Z,53.10
2017-08-27T22:19:42.795Z,53.10
2017-08-27T22:22:10.293Z,53.00
2017-08-27T22:24:37.888Z,53.00
2017-08-27T22:27:05.416Z,52.90
2017-08-27T22:29:32.944Z,53.10
2017-08-27T22:32:00.551Z,53.20
2017-08-27T22:34:28.097Z,53.30
2017-08-27T22:36:55.596Z,53.30
2017-08-27T22:39:23.164Z,53.20
2017-08-27T22:41:50.669Z,53.30
2017-08-27T22:44:18.232Z,53.30
2017-08-27T22:46:45.772Z,53.30
2017-08-27T22:49:13.364Z,53.30
2017-08-27T22:51:40.919Z,53.20
2017-08-27T22:54:08.444Z,53.40
2017-08-27T22:56:36.042Z,53.50
2017-08-27T22:59:03.568Z,53.60
2017-08-27T23:01:31.168Z,53.50
2017-08-27T23:03:58.708Z,53.70
2017-08-27T23:06:26.287Z,53.60
2017-08-27T23:08:53.841Z,53.60
2017-08-27T23:11:21.398Z,53.20
2017-08-27T23:13:48.988Z,53.30
2017-08-27T23:16:16.539Z,53.50
2017-08-27T23:18:44.179Z,54.10
2017-08-27T23:21:11.752Z,53.60
2017-08-27T23:23:39.255Z,53.60
2017-08-27T23:26:06.921Z,53.50
2017-08-27T23:28:34.464Z,53.50
2017-08-27T23:31:01.977Z,53.40
2017-08-27T23:33:29.554Z,53.50
2017-08-27T23:35:57.120Z,53.40
2017-08-27T23:38:24.669Z,53.40
2017-08-27T23:40:52.184Z,53.40
2017-08-27T23:43:19.723Z,53.20
2017-08-27T23:45:47.303Z,53.10
2017-08-27T23:48:14.840Z,53.10
2017-08-27T23:50:42.389Z,53.00
2017-08-27T23:53:09.949Z,52.90
2017-08-27T23:55:37.509Z,52.80
2017-08-27T23:58:05.084Z,52.60
